sensor_id;sensor_type;location;lat;lon;timestamp;P1;durP1;ratioP1;P2;durP2;ratioP2
11439;SDS011;5776;51.814;4.510;2022-10-17T00:00:47;5.33;;;3.13;;
11439;SDS011;5776;51.814;4.510;2022-10-17T00:03:14;3.42;;;2.83;;
11439;SDS011;5776;51.814;4.510;2022-10-17T00:05:41;4.60;;;3.13;;
11439;SDS011;5776;51.814;4.510;2022-10-17T00:08:09;6.33;;;3.10;;
11439;SDS011;5776;51.814;4.510;2022-10-17T00:10:37;5.23;;;3.17;;
11439;SDS011;5776;51.814;4.510;2022-10-17T00:13:03;5.50;;;2.00;;
11439;SDS011;5776;51.814;4.510;2022-10-17T00:15:30;3.53;;;3.10;;
11439;SDS011;5776;51.814;4.510;2022-10-17T00:17:57;6.47;;;3.63;;
11439;SDS011;5776;51.814;4.510;2022-10-17T00:20:23;5.77;;;3.50;;
11439;SDS011;5776;51.814;4.510;2022-10-17T00:22:50;3.27;;;2.50;;
11439;SDS011;5776;51.814;4.510;2022-10-17T00:25:16;5.13;;;3.60;;
11439;SDS011;5776;51.814;4.510;2022-10-17T00:27:42;7.83;;;3.53;;
11439;SDS011;5776;51.814;4.510;2022-10-17T00:30:10;3.97;;;3.57;;
11439;SDS011;5776;51.814;4.510;2022-10-17T00:32:38;5.97;;;3.33;;
11439;SDS011;5776;51.814;4.510;2022-10-17T00:35:04;4.77;;;3.37;;
11439;SDS011;5776;51.814;4.510;2022-10-17T00:37:31;5.60;;;3.97;;
11439;SDS011;5776;51.814;4.510;2022-10-17T00:39:58;9.00;;;3.80;;
11439;SDS011;5776;51.814;4.510;2022-10-17T00:42:24;5.07;;;3.80;;
11439;SDS011;5776;51.814;4.510;2022-10-17T00:45:26;4.57;;;2.80;;
11439;SDS011;5776;51.814;4.510;2022-10-17T00:47:57;4.67;;;3.53;;
11439;SDS011;5776;51.814;4.510;2022-10-17T00:50:28;5.20;;;3.73;;
11439;SDS011;5776;51.814;4.510;2022-10-17T00:52:54;7.30;;;4.60;;
11439;SDS011;5776;51.814;4.510;2022-10-17T00:55:33;4.90;;;4.13;;
11439;SDS011;5776;51.814;4.510;2022-10-17T00:58:02;10.90;;;3.90;;
11439;SDS011;5776;51.814;4.510;2022-10-17T01:00:31;7.90;;;4.47;;
11439;SDS011;5776;51.814;4.510;2022-10-17T01:02:57;7.27;;;4.77;;
11439;SDS011;5776;51.814;4.510;2022-10-17T01:05:23;5.27;;;3.93;;
11439;SDS011;5776;51.814;4.510;2022-10-17T01:07:49;10.63;;;4.53;;
11439;SDS011;5776;51.814;4.510;2022-10-17T01:10:17;7.23;;;4.00;;
11439;SDS011;5776;51.814;4.510;2022-10-17T01:12:47;8.67;;;5.00;;
11439;SDS011;5776;51.814;4.510;2022-10-17T01:32:15;8.27;;;4.43;;
11439;SDS011;5776;51.814;4.510;2022-10-17T01:34:57;6.50;;;4.77;;
11439;SDS011;5776;51.814;4.510;2022-10-17T01:37:45;7.03;;;4.37;;
11439;SDS011;5776;51.814;4.510;2022-10-17T01:40:22;10.60;;;4.37;;
11439;SDS011;5776;51.814;4.510;2022-10-17T01:43:00;7.60;;;4.20;;
11439;SDS011;5776;51.814;4.510;2022-10-17T01:48:11;7.70;;;3.50;;
11439;SDS011;5776;51.814;4.510;2022-10-17T01:50:42;4.30;;;2.57;;
11439;SDS011;5776;51.814;4.510;2022-10-17T01:53:15;3.73;;;2.83;;
11439;SDS011;5776;51.814;4.510;2022-10-17T01:55:46;4.37;;;3.03;;
11439;SDS011;5776;51.814;4.510;2022-10-17T01:58:23;6.87;;;3.63;;
11439;SDS011;5776;51.814;4.510;2022-10-17T02:00:54;4.93;;;3.63;;
11439;SDS011;5776;51.814;4.510;2022-10-17T02:03:23;5.03;;;4.20;;
11439;SDS011;5776;51.814;4.510;2022-10-17T02:05:52;4.63;;;3.80;;
11439;SDS011;5776;51.814;4.510;2022-10-17T02:08:26;8.43;;;4.27;;
11439;SDS011;5776;51.814;4.510;2022-10-17T02:10:55;8.23;;;4.50;;
11439;SDS011;5776;51.814;4.510;2022-10-17T02:16:13;7.73;;;4.33;;
11439;SDS011;5776;51.814;4.510;2022-10-17T02:24:58;6.13;;;4.30;;
11439;SDS011;5776;51.814;4.510;2022-10-17T02:30:02;6.80;;;4.70;;
11439;SDS011;5776;51.814;4.510;2022-10-17T02:35:12;4.13;;;3.47;;
11439;SDS011;5776;51.814;4.510;2022-10-17T02:37:40;5.70;;;3.87;;
11439;SDS011;5776;51.814;4.510;2022-10-17T02:40:08;4.83;;;2.77;;
11439;SDS011;5776;51.814;4.510;2022-10-17T02:42:36;8.80;;;4.53;;
11439;SDS011;5776;51.814;4.510;2022-10-17T02:45:04;10.67;;;5.07;;
11439;SDS011;5776;51.814;4.510;2022-10-17T02:47:35;7.83;;;4.97;;
11439;SDS011;5776;51.814;4.510;2022-10-17T02:50:04;9.07;;;4.43;;
11439;SDS011;5776;51.814;4.510;2022-10-17T02:55:03;6.90;;;5.00;;
11439;SDS011;5776;51.814;4.510;2022-10-17T02:57:35;7.10;;;4.70;;
11439;SDS011;5776;51.814;4.510;2022-10-17T03:00:05;7.80;;;4.53;;
11439;SDS011;5776;51.814;4.510;2022-10-17T03:02:41;10.37;;;3.93;;
11439;SDS011;5776;51.814;4.510;2022-10-17T03:05:10;7.63;;;3.73;;
11439;SDS011;5776;51.814;4.510;2022-10-17T03:07:38;7.37;;;4.07;;
11439;SDS011;5776;51.814;4.510;2022-10-17T03:10:04;8.17;;;3.80;;
11439;SDS011;5776;51.814;4.510;2022-10-17T03:12:30;4.90;;;3.27;;
11439;SDS011;5776;51.814;4.510;2022-10-17T03:14:56;11.40;;;4.73;;
11439;SDS011;5776;51.814;4.510;2022-10-17T03:17:22;11.10;;;4.40;;
11439;SDS011;5776;51.814;4.510;2022-10-17T03:19:48;3.67;;;3.30;;
11439;SDS011;5776;51.814;4.510;2022-10-17T03:22:14;7.53;;;4.60;;
11439;SDS011;5776;51.814;4.510;2022-10-17T03:24:40;8.40;;;5.60;;
11439;SDS011;5776;51.814;4.510;2022-10-17T03:27:06;10.47;;;6.20;;
11439;SDS011;5776;51.814;4.510;2022-10-17T03:29:32;11.37;;;6.20;;
11439;SDS011;5776;51.814;4.510;2022-10-17T03:31:58;10.53;;;4.57;;
11439;SDS011;5776;51.814;4.510;2022-10-17T03:34:24;12.20;;;5.20;;
11439;SDS011;5776;51.814;4.510;2022-10-17T03:36:50;6.63;;;4.77;;
11439;SDS011;5776;51.814;4.510;2022-10-17T03:39:16;6.17;;;5.07;;
11439;SDS011;5776;51.814;4.510;2022-10-17T03:41:42;5.67;;;4.87;;
11439;SDS011;5776;51.814;4.510;2022-10-17T03:44:08;10.07;;;4.53;;
11439;SDS011;5776;51.814;4.510;2022-10-17T03:46:34;11.67;;;5.40;;
11439;SDS011;5776;51.814;4.510;2022-10-17T03:48:59;7.47;;;4.93;;
11439;SDS011;5776;51.814;4.510;2022-10-17T03:51:26;6.80;;;5.20;;
11439;SDS011;5776;51.814;4.510;2022-10-17T03:53:52;6.63;;;4.50;;
11439;SDS011;5776;51.814;4.510;2022-10-17T03:56:19;6.83;;;4.43;;
11439;SDS011;5776;51.814;4.510;2022-10-17T03:58:47;6.37;;;4.67;;
11439;SDS011;5776;51.814;4.510;2022-10-17T04:01:14;9.50;;;4.73;;
11439;SDS011;5776;51.814;4.510;2022-10-17T04:03:41;8.27;;;4.70;;
11439;SDS011;5776;51.814;4.510;2022-10-17T04:06:09;7.80;;;4.93;;
11439;SDS011;5776;51.814;4.510;2022-10-17T04:08:37;6.23;;;4.97;;
11439;SDS011;5776;51.814;4.510;2022-10-17T04:11:04;9.60;;;5.13;;
11439;SDS011;5776;51.814;4.510;2022-10-17T04:13:32;7.63;;;5.10;;
11439;SDS011;5776;51.814;4.510;2022-10-17T04:15:59;8.53;;;5.00;;
11439;SDS011;5776;51.814;4.510;2022-10-17T04:18:27;7.07;;;4.83;;
11439;SDS011;5776;51.814;4.510;2022-10-17T04:20:53;8.47;;;4.63;;
11439;SDS011;5776;51.814;4.510;2022-10-17T04:23:19;8.53;;;5.17;;
11439;SDS011;5776;51.814;4.510;2022-10-17T04:25:46;7.07;;;5.03;;
11439;SDS011;5776;51.814;4.510;2022-10-17T04:28:11;6.23;;;4.97;;
11439;SDS011;5776;51.814;4.510;2022-10-17T04:30:37;7.77;;;5.00;;
11439;SDS011;5776;51.814;4.510;2022-10-17T04:33:04;5.97;;;5.20;;
11439;SDS011;5776;51.814;4.510;2022-10-17T04:35:30;6.23;;;4.87;;
11439;SDS011;5776;51.814;4.510;2022-10-17T04:37:56;9.30;;;5.37;;
11439;SDS011;5776;51.814;4.510;2022-10-17T04:40:22;6.57;;;4.87;;
11439;SDS011;5776;51.814;4.510;2022-10-17T04:42:48;10.17;;;5.10;;
11439;SDS011;5776;51.814;4.510;2022-10-17T04:45:14;6.67;;;5.23;;
11439;SDS011;5776;51.814;4.510;2022-10-17T04:47:40;7.87;;;5.20;;
11439;SDS011;5776;51.814;4.510;2022-10-17T04:50:06;6.97;;;5.03;;
11439;SDS011;5776;51.814;4.510;2022-10-17T04:52:33;6.40;;;4.83;;
11439;SDS011;5776;51.814;4.510;2022-10-17T04:55:03;9.03;;;5.20;;
11439;SDS011;5776;51.814;4.510;2022-10-17T04:57:29;7.93;;;5.27;;
11439;SDS011;5776;51.814;4.510;2022-10-17T04:59:59;7.70;;;4.80;;
11439;SDS011;5776;51.814;4.510;2022-10-17T05:02:26;10.37;;;5.03;;
11439;SDS011;5776;51.814;4.510;2022-10-17T05:04:51;6.67;;;4.93;;
11439;SDS011;5776;51.814;4.510;2022-10-17T05:07:17;12.07;;;5.23;;
11439;SDS011;5776;51.814;4.510;2022-10-17T05:09:43;6.87;;;5.07;;
11439;SDS011;5776;51.814;4.510;2022-10-17T05:12:10;5.50;;;4.77;;
11439;SDS011;5776;51.814;4.510;2022-10-17T05:14:36;6.93;;;4.67;;
11439;SDS011;5776;51.814;4.510;2022-10-17T05:17:02;9.57;;;4.03;;
11439;SDS011;5776;51.814;4.510;2022-10-17T05:19:28;8.10;;;4.30;;
11439;SDS011;5776;51.814;4.510;2022-10-17T05:21:54;7.90;;;4.90;;
11439;SDS011;5776;51.814;4.510;2022-10-17T05:24:19;5.13;;;3.73;;
11439;SDS011;5776;51.814;4.510;2022-10-17T05:26:48;9.10;;;3.73;;
11439;SDS011;5776;51.814;4.510;2022-10-17T05:29:15;6.73;;;4.40;;
11439;SDS011;5776;51.814;4.510;2022-10-17T05:31:41;6.43;;;4.63;;
11439;SDS011;5776;51.814;4.510;2022-10-17T05:34:07;6.60;;;4.43;;
11439;SDS011;5776;51.814;4.510;2022-10-17T05:36:33;8.37;;;4.53;;
11439;SDS011;5776;51.814;4.510;2022-10-17T05:38:59;4.40;;;3.10;;
11439;SDS011;5776;51.814;4.510;2022-10-17T05:41:25;6.57;;;4.00;;
11439;SDS011;5776;51.814;4.510;2022-10-17T05:43:51;5.50;;;3.13;;
11439;SDS011;5776;51.814;4.510;2022-10-17T05:46:17;5.00;;;3.57;;
11439;SDS011;5776;51.814;4.510;2022-10-17T05:48:43;14.10;;;4.50;;
11439;SDS011;5776;51.814;4.510;2022-10-17T05:51:09;6.60;;;3.73;;
11439;SDS011;5776;51.814;4.510;2022-10-17T05:53:36;9.17;;;3.97;;
11439;SDS011;5776;51.814;4.510;2022-10-17T05:56:05;6.73;;;3.90;;
11439;SDS011;5776;51.814;4.510;2022-10-17T05:58:32;4.57;;;3.10;;
11439;SDS011;5776;51.814;4.510;2022-10-17T06:00:59;7.60;;;3.20;;
11439;SDS011;5776;51.814;4.510;2022-10-17T06:03:28;9.87;;;4.30;;
11439;SDS011;5776;51.814;4.510;2022-10-17T06:05:54;6.30;;;4.03;;
11439;SDS011;5776;51.814;4.510;2022-10-17T06:08:21;9.43;;;3.83;;
11439;SDS011;5776;51.814;4.510;2022-10-17T06:10:50;5.70;;;3.90;;
11439;SDS011;5776;51.814;4.510;2022-10-17T06:13:16;8.93;;;4.73;;
11439;SDS011;5776;51.814;4.510;2022-10-17T06:15:45;9.63;;;4.47;;
11439;SDS011;5776;51.814;4.510;2022-10-17T06:18:11;8.60;;;3.80;;
11439;SDS011;5776;51.814;4.510;2022-10-17T06:20:37;7.93;;;3.63;;
11439;SDS011;5776;51.814;4.510;2022-10-17T06:23:04;6.63;;;4.33;;
11439;SDS011;5776;51.814;4.510;2022-10-17T06:25:31;6.17;;;4.43;;
11439;SDS011;5776;51.814;4.510;2022-10-17T06:27:57;8.47;;;4.37;;
11439;SDS011;5776;51.814;4.510;2022-10-17T06:30:23;7.37;;;4.50;;
11439;SDS011;5776;51.814;4.510;2022-10-17T06:32:50;7.40;;;3.83;;
11439;SDS011;5776;51.814;4.510;2022-10-17T06:35:17;7.87;;;4.43;;
11439;SDS011;5776;51.814;4.510;2022-10-17T06:37:43;5.83;;;4.17;;
11439;SDS011;5776;51.814;4.510;2022-10-17T06:40:09;6.83;;;4.33;;
11439;SDS011;5776;51.814;4.510;2022-10-17T06:42:37;9.63;;;4.03;;
11439;SDS011;5776;51.814;4.510;2022-10-17T06:45:04;7.50;;;3.87;;
11439;SDS011;5776;51.814;4.510;2022-10-17T06:47:30;10.37;;;3.97;;
11439;SDS011;5776;51.814;4.510;2022-10-17T06:49:56;9.30;;;5.13;;
11439;SDS011;5776;51.814;4.510;2022-10-17T06:52:22;6.20;;;4.70;;
11439;SDS011;5776;51.814;4.510;2022-10-17T06:54:48;5.07;;;4.00;;
11439;SDS011;5776;51.814;4.510;2022-10-17T06:57:16;7.67;;;4.63;;
11439;SDS011;5776;51.814;4.510;2022-10-17T06:59:42;8.20;;;5.17;;
11439;SDS011;5776;51.814;4.510;2022-10-17T07:02:09;10.43;;;5.00;;
11439;SDS011;5776;51.814;4.510;2022-10-17T07:04:35;11.57;;;5.70;;
11439;SDS011;5776;51.814;4.510;2022-10-17T07:07:02;9.27;;;5.00;;
11439;SDS011;5776;51.814;4.510;2022-10-17T07:09:28;8.43;;;5.83;;
11439;SDS011;5776;51.814;4.510;2022-10-17T07:11:55;11.27;;;5.73;;
11439;SDS011;5776;51.814;4.510;2022-10-17T07:14:21;9.43;;;5.60;;
11439;SDS011;5776;51.814;4.510;2022-10-17T07:16:47;8.97;;;5.50;;
11439;SDS011;5776;51.814;4.510;2022-10-17T07:19:14;8.33;;;5.10;;
11439;SDS011;5776;51.814;4.510;2022-10-17T07:21:40;12.90;;;5.83;;
11439;SDS011;5776;51.814;4.510;2022-10-17T07:24:06;10.77;;;6.13;;
11439;SDS011;5776;51.814;4.510;2022-10-17T07:26:32;8.33;;;5.47;;
11439;SDS011;5776;51.814;4.510;2022-10-17T07:28:58;9.93;;;6.20;;
11439;SDS011;5776;51.814;4.510;2022-10-17T07:31:24;14.33;;;6.40;;
11439;SDS011;5776;51.814;4.510;2022-10-17T07:33:50;14.47;;;6.43;;
11439;SDS011;5776;51.814;4.510;2022-10-17T07:36:16;9.87;;;5.80;;
11439;SDS011;5776;51.814;4.510;2022-10-17T07:38:42;11.03;;;5.47;;
11439;SDS011;5776;51.814;4.510;2022-10-17T07:41:10;8.03;;;5.57;;
11439;SDS011;5776;51.814;4.510;2022-10-17T07:43:37;14.07;;;5.80;;
11439;SDS011;5776;51.814;4.510;2022-10-17T07:46:03;8.47;;;5.07;;
11439;SDS011;5776;51.814;4.510;2022-10-17T07:48:30;12.30;;;5.70;;
11439;SDS011;5776;51.814;4.510;2022-10-17T07:50:56;9.27;;;5.47;;
11439;SDS011;5776;51.814;4.510;2022-10-17T07:53:26;9.00;;;5.33;;
11439;SDS011;5776;51.814;4.510;2022-10-17T07:55:52;9.73;;;6.07;;
11439;SDS011;5776;51.814;4.510;2022-10-17T07:58:17;9.30;;;5.87;;
11439;SDS011;5776;51.814;4.510;2022-10-17T08:00:44;14.00;;;6.30;;
11439;SDS011;5776;51.814;4.510;2022-10-17T08:03:12;9.47;;;5.37;;
11439;SDS011;5776;51.814;4.510;2022-10-17T08:05:38;9.03;;;5.13;;
11439;SDS011;5776;51.814;4.510;2022-10-17T08:08:04;11.17;;;6.17;;
11439;SDS011;5776;51.814;4.510;2022-10-17T08:10:30;12.03;;;5.73;;
11439;SDS011;5776;51.814;4.510;2022-10-17T08:12:56;10.33;;;5.50;;
11439;SDS011;5776;51.814;4.510;2022-10-17T08:15:23;10.10;;;5.53;;
11439;SDS011;5776;51.814;4.510;2022-10-17T08:17:50;13.03;;;6.10;;
11439;SDS011;5776;51.814;4.510;2022-10-17T08:20:16;11.03;;;6.23;;
11439;SDS011;5776;51.814;4.510;2022-10-17T08:22:42;9.87;;;5.87;;
11439;SDS011;5776;51.814;4.510;2022-10-17T08:25:16;9.75;;;5.93;;
11439;SDS011;5776;51.814;4.510;2022-10-17T08:27:41;9.60;;;5.77;;
11439;SDS011;5776;51.814;4.510;2022-10-17T08:30:07;10.63;;;6.07;;
11439;SDS011;5776;51.814;4.510;2022-10-17T08:32:33;12.73;;;5.60;;
11439;SDS011;5776;51.814;4.510;2022-10-17T08:34:59;11.40;;;5.67;;
11439;SDS011;5776;51.814;4.510;2022-10-17T08:37:25;14.13;;;6.00;;
11439;SDS011;5776;51.814;4.510;2022-10-17T08:39:51;14.30;;;5.70;;
11439;SDS011;5776;51.814;4.510;2022-10-17T08:47:42;11.17;;;5.83;;
11439;SDS011;5776;51.814;4.510;2022-10-17T08:50:17;12.40;;;5.40;;
11439;SDS011;5776;51.814;4.510;2022-10-17T08:52:53;12.73;;;6.03;;
11439;SDS011;5776;51.814;4.510;2022-10-17T08:55:32;13.30;;;6.23;;
11439;SDS011;5776;51.814;4.510;2022-10-17T08:58:02;14.07;;;6.27;;
11439;SDS011;5776;51.814;4.510;2022-10-17T09:00:34;9.95;;;5.95;;
11439;SDS011;5776;51.814;4.510;2022-10-17T09:17:17;8.57;;;5.30;;
11439;SDS011;5776;51.814;4.510;2022-10-17T09:25:28;10.63;;;5.40;;
11439;SDS011;5776;51.814;4.510;2022-10-17T09:28:10;9.10;;;5.20;;
11439;SDS011;5776;51.814;4.510;2022-10-17T09:30:42;9.83;;;5.37;;
11439;SDS011;5776;51.814;4.510;2022-10-17T09:35:36;8.87;;;5.53;;
11439;SDS011;5776;51.814;4.510;2022-10-17T09:38:03;9.97;;;5.20;;
11439;SDS011;5776;51.814;4.510;2022-10-17T09:40:33;12.70;;;5.43;;
11439;SDS011;5776;51.814;4.510;2022-10-17T09:43:00;9.57;;;5.57;;
11439;SDS011;5776;51.814;4.510;2022-10-17T09:45:29;9.80;;;4.97;;
11439;SDS011;5776;51.814;4.510;2022-10-17T09:50:58;10.60;;;5.70;;
11439;SDS011;5776;51.814;4.510;2022-10-17T09:53:26;10.67;;;5.70;;
11439;SDS011;5776;51.814;4.510;2022-10-17T09:55:57;13.97;;;6.10;;
11439;SDS011;5776;51.814;4.510;2022-10-17T09:58:45;7.73;;;5.70;;
11439;SDS011;5776;51.814;4.510;2022-10-17T10:01:21;8.03;;;6.03;;
11439;SDS011;5776;51.814;4.510;2022-10-17T10:04:10;11.63;;;6.13;;
11439;SDS011;5776;51.814;4.510;2022-10-17T10:06:41;10.83;;;6.20;;
11439;SDS011;5776;51.814;4.510;2022-10-17T10:09:27;10.60;;;6.03;;
11439;SDS011;5776;51.814;4.510;2022-10-17T10:11:56;13.60;;;6.22;;
11439;SDS011;5776;51.814;4.510;2022-10-17T10:14:34;13.80;;;6.30;;
11439;SDS011;5776;51.814;4.510;2022-10-17T10:17:03;12.40;;;6.23;;
11439;SDS011;5776;51.814;4.510;2022-10-17T10:19:31;10.87;;;6.43;;
11439;SDS011;5776;51.814;4.510;2022-10-17T10:22:00;9.70;;;6.20;;
11439;SDS011;5776;51.814;4.510;2022-10-17T10:24:31;8.67;;;6.07;;
11439;SDS011;5776;51.814;4.510;2022-10-17T10:27:01;9.97;;;5.80;;
11439;SDS011;5776;51.814;4.510;2022-10-17T10:29:31;10.47;;;6.23;;
11439;SDS011;5776;51.814;4.510;2022-10-17T10:34:37;8.32;;;5.70;;
11439;SDS011;5776;51.814;4.510;2022-10-17T10:37:44;10.63;;;6.07;;
11439;SDS011;5776;51.814;4.510;2022-10-17T10:40:19;8.33;;;4.90;;
11439;SDS011;5776;51.814;4.510;2022-10-17T10:42:49;8.90;;;4.67;;
11439;SDS011;5776;51.814;4.510;2022-10-17T10:45:25;5.70;;;3.67;;
11439;SDS011;5776;51.814;4.510;2022-10-17T10:47:53;7.97;;;3.83;;
11439;SDS011;5776;51.814;4.510;2022-10-17T10:50:26;6.60;;;3.23;;
11439;SDS011;5776;51.814;4.510;2022-10-17T11:01:15;5.65;;;3.08;;
11439;SDS011;5776;51.814;4.510;2022-10-17T11:03:46;3.93;;;2.87;;
11439;SDS011;5776;51.814;4.510;2022-10-17T11:06:26;5.83;;;3.37;;
11439;SDS011;5776;51.814;4.510;2022-10-17T11:09:04;6.73;;;3.30;;
11439;SDS011;5776;51.814;4.510;2022-10-17T11:11:45;7.17;;;3.67;;
11439;SDS011;5776;51.814;4.510;2022-10-17T11:14:19;8.67;;;4.00;;
11439;SDS011;5776;51.814;4.510;2022-10-17T11:22:33;8.88;;;3.47;;
11439;SDS011;5776;51.814;4.510;2022-10-17T11:25:15;5.67;;;2.83;;
11439;SDS011;5776;51.814;4.510;2022-10-17T11:27:47;5.07;;;3.40;;
11439;SDS011;5776;51.814;4.510;2022-10-17T11:30:13;10.70;;;4.27;;
11439;SDS011;5776;51.814;4.510;2022-10-17T11:32:51;6.83;;;3.80;;
11439;SDS011;5776;51.814;4.510;2022-10-17T11:35:35;5.43;;;3.60;;
11439;SDS011;5776;51.814;4.510;2022-10-17T11:38:17;7.83;;;4.70;;
11439;SDS011;5776;51.814;4.510;2022-10-17T11:40:47;8.93;;;5.67;;
11439;SDS011;5776;51.814;4.510;2022-10-17T11:45:58;14.53;;;6.37;;
11439;SDS011;5776;51.814;4.510;2022-10-17T11:48:39;11.27;;;6.90;;
11439;SDS011;5776;51.814;4.510;2022-10-17T11:51:15;9.60;;;5.80;;
11439;SDS011;5776;51.814;4.510;2022-10-17T11:53:44;12.90;;;6.27;;
11439;SDS011;5776;51.814;4.510;2022-10-17T11:56:14;9.93;;;5.80;;
11439;SDS011;5776;51.814;4.510;2022-10-17T12:01:33;11.13;;;5.93;;
11439;SDS011;5776;51.814;4.510;2022-10-17T12:04:11;9.40;;;4.97;;
11439;SDS011;5776;51.814;4.510;2022-10-17T12:09:51;10.53;;;6.40;;
11439;SDS011;5776;51.814;4.510;2022-10-17T12:12:26;13.02;;;5.97;;
11439;SDS011;5776;51.814;4.510;2022-10-17T12:14:53;10.53;;;5.90;;
11439;SDS011;5776;51.814;4.510;2022-10-17T12:17:40;10.47;;;6.40;;
11439;SDS011;5776;51.814;4.510;2022-10-17T12:22:51;11.20;;;6.47;;
11439;SDS011;5776;51.814;4.510;2022-10-17T12:25:23;8.83;;;6.40;;
11439;SDS011;5776;51.814;4.510;2022-10-17T12:30:53;11.13;;;6.38;;
11439;SDS011;5776;51.814;4.510;2022-10-17T12:38:43;12.32;;;7.20;;
11439;SDS011;5776;51.814;4.510;2022-10-17T12:41:11;12.27;;;8.10;;
11439;SDS011;5776;51.814;4.510;2022-10-17T12:43:44;15.80;;;7.53;;
11439;SDS011;5776;51.814;4.510;2022-10-17T12:46:39;11.25;;;7.70;;
11439;SDS011;5776;51.814;4.510;2022-10-17T12:52:21;12.63;;;7.87;;
11439;SDS011;5776;51.814;4.510;2022-10-17T12:57:36;16.13;;;8.57;;
11439;SDS011;5776;51.814;4.510;2022-10-17T13:03:16;13.77;;;8.45;;
11439;SDS011;5776;51.814;4.510;2022-10-17T13:05:48;13.07;;;8.30;;
11439;SDS011;5776;51.814;4.510;2022-10-17T13:08:23;14.97;;;8.83;;
11439;SDS011;5776;51.814;4.510;2022-10-17T13:10:53;13.88;;;7.43;;
11439;SDS011;5776;51.814;4.510;2022-10-17T13:18:54;15.20;;;7.43;;
11439;SDS011;5776;51.814;4.510;2022-10-17T13:21:20;15.07;;;8.50;;
11439;SDS011;5776;51.814;4.510;2022-10-17T13:23:46;14.98;;;6.93;;
11439;SDS011;5776;51.814;4.510;2022-10-17T13:26:16;12.50;;;7.03;;
11439;SDS011;5776;51.814;4.510;2022-10-17T13:28:59;14.10;;;7.22;;
11439;SDS011;5776;51.814;4.510;2022-10-17T13:31:36;11.03;;;7.63;;
11439;SDS011;5776;51.814;4.510;2022-10-17T13:34:05;15.47;;;7.10;;
11439;SDS011;5776;51.814;4.510;2022-10-17T13:36:39;10.93;;;7.17;;
11439;SDS011;5776;51.814;4.510;2022-10-17T13:39:08;13.80;;;6.88;;
11439;SDS011;5776;51.814;4.510;2022-10-17T13:41:37;10.63;;;6.53;;
11439;SDS011;5776;51.814;4.510;2022-10-17T13:44:14;10.97;;;6.10;;
11439;SDS011;5776;51.814;4.510;2022-10-17T13:46:44;9.30;;;4.28;;
11439;SDS011;5776;51.814;4.510;2022-10-17T13:51:36;14.03;;;4.77;;
11439;SDS011;5776;51.814;4.510;2022-10-17T13:54:18;9.45;;;4.20;;
11439;SDS011;5776;51.814;4.510;2022-10-17T13:57:13;6.75;;;3.55;;
11439;SDS011;5776;51.814;4.510;2022-10-17T13:59:49;11.05;;;3.88;;
11439;SDS011;5776;51.814;4.510;2022-10-17T14:02:22;7.82;;;4.10;;
11439;SDS011;5776;51.814;4.510;2022-10-17T14:05:09;11.10;;;4.10;;
11439;SDS011;5776;51.814;4.510;2022-10-17T14:07:38;8.97;;;4.23;;
11439;SDS011;5776;51.814;4.510;2022-10-17T14:10:20;10.55;;;4.00;;
11439;SDS011;5776;51.814;4.510;2022-10-17T14:12:47;9.50;;;4.30;;
11439;SDS011;5776;51.814;4.510;2022-10-17T14:15:14;12.27;;;3.93;;
11439;SDS011;5776;51.814;4.510;2022-10-17T14:17:40;8.80;;;2.90;;
11439;SDS011;5776;51.814;4.510;2022-10-17T14:20:15;7.40;;;3.60;;
11439;SDS011;5776;51.814;4.510;2022-10-17T14:22:43;11.33;;;3.10;;
11439;SDS011;5776;51.814;4.510;2022-10-17T14:28:00;6.27;;;2.73;;
11439;SDS011;5776;51.814;4.510;2022-10-17T14:30:35;5.30;;;2.70;;
11439;SDS011;5776;51.814;4.510;2022-10-17T14:33:05;7.57;;;3.00;;
11439;SDS011;5776;51.814;4.510;2022-10-17T14:35:33;2.53;;;1.83;;
11439;SDS011;5776;51.814;4.510;2022-10-17T14:38:00;7.43;;;2.28;;
11439;SDS011;5776;51.814;4.510;2022-10-17T14:40:29;7.50;;;2.40;;
11439;SDS011;5776;51.814;4.510;2022-10-17T14:42:57;6.38;;;2.17;;
11439;SDS011;5776;51.814;4.510;2022-10-17T14:45:28;5.93;;;1.88;;
11439;SDS011;5776;51.814;4.510;2022-10-17T14:48:03;10.70;;;2.22;;
11439;SDS011;5776;51.814;4.510;2022-10-17T14:50:36;8.60;;;2.45;;
11439;SDS011;5776;51.814;4.510;2022-10-17T14:55:29;6.05;;;2.40;;
11439;SDS011;5776;51.814;4.510;2022-10-17T14:57:56;6.93;;;2.20;;
11439;SDS011;5776;51.814;4.510;2022-10-17T15:00:23;4.18;;;2.15;;
11439;SDS011;5776;51.814;4.510;2022-10-17T15:02:49;3.92;;;1.95;;
11439;SDS011;5776;51.814;4.510;2022-10-17T15:05:17;5.70;;;2.17;;
11439;SDS011;5776;51.814;4.510;2022-10-17T15:07:45;5.00;;;2.00;;
11439;SDS011;5776;51.814;4.510;2022-10-17T15:10:22;4.85;;;2.30;;
11439;SDS011;5776;51.814;4.510;2022-10-17T15:13:00;5.43;;;1.95;;
11439;SDS011;5776;51.814;4.510;2022-10-17T15:15:29;7.97;;;2.05;;
11439;SDS011;5776;51.814;4.510;2022-10-17T15:17:56;3.38;;;1.83;;
11439;SDS011;5776;51.814;4.510;2022-10-17T15:20:23;4.40;;;1.88;;
11439;SDS011;5776;51.814;4.510;2022-10-17T15:22:52;4.60;;;1.90;;
11439;SDS011;5776;51.814;4.510;2022-10-17T15:25:19;5.32;;;1.55;;
11439;SDS011;5776;51.814;4.510;2022-10-17T15:27:45;5.57;;;1.65;;
11439;SDS011;5776;51.814;4.510;2022-10-17T15:32:46;4.45;;;1.70;;
11439;SDS011;5776;51.814;4.510;2022-10-17T15:35:13;5.38;;;1.80;;
11439;SDS011;5776;51.814;4.510;2022-10-17T15:37:39;4.30;;;1.85;;
11439;SDS011;5776;51.814;4.510;2022-10-17T15:40:15;6.15;;;1.50;;
11439;SDS011;5776;51.814;4.510;2022-10-17T15:42:45;7.35;;;1.50;;
11439;SDS011;5776;51.814;4.510;2022-10-17T15:45:12;8.13;;;1.80;;
11439;SDS011;5776;51.814;4.510;2022-10-17T15:47:41;4.28;;;1.58;;
11439;SDS011;5776;51.814;4.510;2022-10-17T15:50:12;5.50;;;2.10;;
11439;SDS011;5776;51.814;4.510;2022-10-17T15:52:40;6.10;;;1.77;;
11439;SDS011;5776;51.814;4.510;2022-10-17T15:55:06;4.10;;;1.70;;
11439;SDS011;5776;51.814;4.510;2022-10-17T15:57:34;3.50;;;2.10;;
11439;SDS011;5776;51.814;4.510;2022-10-17T16:00:04;4.57;;;1.83;;
11439;SDS011;5776;51.814;4.510;2022-10-17T16:02:32;10.35;;;2.40;;
11439;SDS011;5776;51.814;4.510;2022-10-17T16:04:58;4.97;;;2.10;;
11439;SDS011;5776;51.814;4.510;2022-10-17T16:07:24;3.60;;;1.67;;
11439;SDS011;5776;51.814;4.510;2022-10-17T16:09:50;5.82;;;1.95;;
11439;SDS011;5776;51.814;4.510;2022-10-17T16:12:17;6.95;;;2.03;;
11439;SDS011;5776;51.814;4.510;2022-10-17T16:14:52;3.75;;;1.83;;
11439;SDS011;5776;51.814;4.510;2022-10-17T16:17:18;4.07;;;1.95;;
11439;SDS011;5776;51.814;4.510;2022-10-17T16:19:44;4.95;;;2.03;;
11439;SDS011;5776;51.814;4.510;2022-10-17T16:22:17;5.78;;;1.98;;
11439;SDS011;5776;51.814;4.510;2022-10-17T16:24:56;4.43;;;2.30;;
11439;SDS011;5776;51.814;4.510;2022-10-17T16:27:28;5.10;;;2.10;;
11439;SDS011;5776;51.814;4.510;2022-10-17T16:29:54;3.55;;;2.17;;
11439;SDS011;5776;51.814;4.510;2022-10-17T16:32:20;4.93;;;2.00;;
11439;SDS011;5776;51.814;4.510;2022-10-17T16:34:46;6.15;;;2.13;;
11439;SDS011;5776;51.814;4.510;2022-10-17T16:37:12;4.10;;;1.77;;
11439;SDS011;5776;51.814;4.510;2022-10-17T16:39:38;5.45;;;1.55;;
11439;SDS011;5776;51.814;4.510;2022-10-17T16:42:04;3.00;;;1.67;;
11439;SDS011;5776;51.814;4.510;2022-10-17T16:44:30;6.13;;;1.70;;
11439;SDS011;5776;51.814;4.510;2022-10-17T16:46:55;3.08;;;1.90;;
11439;SDS011;5776;51.814;4.510;2022-10-17T16:49:21;4.95;;;1.73;;
11439;SDS011;5776;51.814;4.510;2022-10-17T16:51:47;7.57;;;1.50;;
11439;SDS011;5776;51.814;4.510;2022-10-17T16:54:13;4.90;;;1.65;;
11439;SDS011;5776;51.814;4.510;2022-10-17T16:56:39;5.65;;;1.45;;
11439;SDS011;5776;51.814;4.510;2022-10-17T16:59:06;3.85;;;1.58;;
11439;SDS011;5776;51.814;4.510;2022-10-17T17:01:35;6.10;;;1.83;;
11439;SDS011;5776;51.814;4.510;2022-10-17T17:04:02;3.83;;;1.58;;
11439;SDS011;5776;51.814;4.510;2022-10-17T17:06:29;4.68;;;1.85;;
11439;SDS011;5776;51.814;4.510;2022-10-17T17:08:55;5.55;;;1.60;;
11439;SDS011;5776;51.814;4.510;2022-10-17T17:11:23;3.70;;;1.30;;
11439;SDS011;5776;51.814;4.510;2022-10-17T17:13:50;4.30;;;1.38;;
11439;SDS011;5776;51.814;4.510;2022-10-17T17:16:17;2.88;;;1.40;;
11439;SDS011;5776;51.814;4.510;2022-10-17T17:18:45;3.05;;;1.35;;